sensor_id;sensor_type;location;lat;lon;timestamp;pressure;altitude;pressure_sealevel;temperature;humidity
8039;BME280;4062;49.844;8.120;2024-02-26T00:01:52;97434.28;;;13.48;57.23
8039;BME280;4062;49.844;8.120;2024-02-26T00:03:54;97435.22;;;13.47;57.20
8039;BME280;4062;49.844;8.120;2024-02-26T00:05:56;97429.91;;;13.47;57.30
8039;BME280;4062;49.844;8.120;2024-02-26T00:07:57;97425.47;;;13.47;57.19
8039;BME280;4062;49.844;8.120;2024-02-26T00:09:58;97417.53;;;13.47;57.09
8039;BME280;4062;49.844;8.120;2024-02-26T00:12:00;97420.19;;;13.47;57.15
8039;BME280;4062;49.844;8.120;2024-02-26T00:14:01;97426.31;;;13.48;57.25
8039;BME280;4062;49.844;8.120;2024-02-26T00:16:06;97424.63;;;13.47;57.15
8039;BME280;4062;49.844;8.120;2024-02-26T00:18:08;97422.06;;;13.45;57.13
8039;BME280;4062;49.844;8.120;2024-02-26T00:20:11;97417.53;;;13.47;57.21
8039;BME280;4062;49.844;8.120;2024-02-26T00:22:12;97428.22;;;13.45;57.08
8039;BME280;4062;49.844;8.120;2024-02-26T00:24:13;97426.44;;;13.46;57.25
8039;BME280;4062;49.844;8.120;2024-02-26T00:26:15;97429.09;;;13.46;57.18
8039;BME280;4062;49.844;8.120;2024-02-26T00:28:16;97421.97;;;13.47;57.22
8039;BME280;4062;49.844;8.120;2024-02-26T00:30:17;97430.88;;;13.45;57.21
8039;BME280;4062;49.844;8.120;2024-02-26T00:32:19;97425.56;;;13.45;57.16
8039;BME280;4062;49.844;8.120;2024-02-26T00:34:20;97419.31;;;13.47;57.18
8039;BME280;4062;49.844;8.120;2024-02-26T00:36:21;97417.59;;;13.45;57.17
8039;BME280;4062;49.844;8.120;2024-02-26T00:38:22;97409.66;;;13.45;57.09
8039;BME280;4062;49.844;8.120;2024-02-26T00:40:23;97389.28;;;13.46;57.22
8039;BME280;4062;49.844;8.120;2024-02-26T00:42:25;97389.28;;;13.46;57.21
8039;BME280;4062;49.844;8.120;2024-02-26T00:44:26;97397.25;;;13.46;57.23
8039;BME280;4062;49.844;8.120;2024-02-26T00:46:27;97369.03;;;13.45;57.20
8039;BME280;4062;49.844;8.120;2024-02-26T00:48:28;97377.81;;;13.45;57.22
8039;BME280;4062;49.844;8.120;2024-02-26T00:50:30;97406.16;;;13.45;57.16
8039;BME280;4062;49.844;8.120;2024-02-26T00:52:31;97413.16;;;13.46;57.25
8039;BME280;4062;49.844;8.120;2024-02-26T00:54:32;97402.66;;;13.44;57.19
8039;BME280;4062;49.844;8.120;2024-02-26T00:56:33;97408.81;;;13.45;57.18
8039;BME280;4062;49.844;8.120;2024-02-26T00:58:35;97406.16;;;13.45;57.23
8039;BME280;4062;49.844;8.120;2024-02-26T01:00:36;97414.13;;;13.45;57.20
8039;BME280;4062;49.844;8.120;2024-02-26T01:02:37;97418.59;;;13.44;57.18
8039;BME280;4062;49.844;8.120;2024-02-26T01:04:39;97420.25;;;13.45;57.23
8039;BME280;4062;49.844;8.120;2024-02-26T01:06:40;97422.91;;;13.45;57.13
8039;BME280;4062;49.844;8.120;2024-02-26T01:08:42;97422.06;;;13.45;57.37
8039;BME280;4062;49.844;8.120;2024-02-26T01:10:43;97423.03;;;13.44;57.12
8039;BME280;4062;49.844;8.120;2024-02-26T01:12:45;97426.53;;;13.44;57.28
8039;BME280;4062;49.844;8.120;2024-02-26T01:14:46;97428.34;;;13.44;57.19
8039;BME280;4062;49.844;8.120;2024-02-26T01:16:47;97438.00;;;13.45;57.17
8039;BME280;4062;49.844;8.120;2024-02-26T01:18:48;97434.50;;;13.44;57.22
8039;BME280;4062;49.844;8.120;2024-02-26T01:20:49;97440.66;;;13.45;57.20
8039;BME280;4062;49.844;8.120;2024-02-26T01:22:51;97423.91;;;13.44;57.09
8039;BME280;4062;49.844;8.120;2024-02-26T01:24:52;97436.28;;;13.44;57.30
8039;BME280;4062;49.844;8.120;2024-02-26T01:26:53;97417.72;;;13.44;57.27
8039;BME280;4062;49.844;8.120;2024-02-26T01:28:54;97405.31;;;13.44;57.17
8039;BME280;4062;49.844;8.120;2024-02-26T01:30:56;97406.28;;;13.43;57.23
8039;BME280;4062;49.844;8.120;2024-02-26T01:32:57;97414.22;;;13.43;57.15
8039;BME280;4062;49.844;8.120;2024-02-26T01:34:59;97413.28;;;13.44;57.30
8039;BME280;4062;49.844;8.120;2024-02-26T01:37:00;97424.72;;;13.45;57.27
8039;BME280;4062;49.844;8.120;2024-02-26T01:39:01;97430.97;;;13.44;57.20
8039;BME280;4062;49.844;8.120;2024-02-26T01:41:04;97440.66;;;13.45;57.11
8039;BME280;4062;49.844;8.120;2024-02-26T01:43:05;97430.16;;;13.43;57.40
8039;BME280;4062;49.844;8.120;2024-02-26T01:45:16;97438.09;;;13.43;57.31
8039;BME280;4062;49.844;8.120;2024-02-26T01:47:23;97447.75;;;13.44;57.26
8039;BME280;4062;49.844;8.120;2024-02-26T01:49:24;97446.91;;;13.44;57.15
8039;BME280;4062;49.844;8.120;2024-02-26T01:51:26;97451.38;;;13.43;57.24
8039;BME280;4062;49.844;8.120;2024-02-26T01:53:27;97457.50;;;13.44;57.24
8039;BME280;4062;49.844;8.120;2024-02-26T01:55:29;97454.03;;;13.43;57.20
8039;BME280;4062;49.844;8.120;2024-02-26T01:57:30;97454.03;;;13.43;57.25
8039;BME280;4062;49.844;8.120;2024-02-26T01:59:32;97464.63;;;13.43;57.23
8039;BME280;4062;49.844;8.120;2024-02-26T02:01:34;97461.97;;;13.43;57.16
8039;BME280;4062;49.844;8.120;2024-02-26T02:03:36;97462.94;;;13.42;57.11
8039;BME280;4062;49.844;8.120;2024-02-26T02:05:41;97472.59;;;13.43;57.22
8039;BME280;4062;49.844;8.120;2024-02-26T02:07:44;97471.72;;;13.43;57.19
8039;BME280;4062;49.844;8.120;2024-02-26T02:09:45;97475.25;;;13.43;57.12
8039;BME280;4062;49.844;8.120;2024-02-26T02:11:47;97477.03;;;13.43;57.24
8039;BME280;4062;49.844;8.120;2024-02-26T02:13:49;97477.03;;;13.43;57.24
8039;BME280;4062;49.844;8.120;2024-02-26T02:15:50;97472.69;;;13.42;57.10
8039;BME280;4062;49.844;8.120;2024-02-26T02:17:52;97476.19;;;13.42;57.19
8039;BME280;4062;49.844;8.120;2024-02-26T02:19:53;97470.88;;;13.42;57.13
8039;BME280;4062;49.844;8.120;2024-02-26T02:21:54;97465.59;;;13.42;57.12
8039;BME280;4062;49.844;8.120;2024-02-26T02:23:56;97473.53;;;13.42;57.19
8039;BME280;4062;49.844;8.120;2024-02-26T02:25:58;97471.72;;;13.43;57.18
8039;BME280;4062;49.844;8.120;2024-02-26T02:27:59;97468.22;;;13.42;57.24
8039;BME280;4062;49.844;8.120;2024-02-26T02:30:03;97475.25;;;13.43;57.13
8039;BME280;4062;49.844;8.120;2024-02-26T02:32:05;97477.03;;;13.43;57.12
8039;BME280;4062;49.844;8.120;2024-02-26T02:34:08;97485.84;;;13.43;57.32
8039;BME280;4062;49.844;8.120;2024-02-26T02:36:10;97486.81;;;13.42;57.11
8039;BME280;4062;49.844;8.120;2024-02-26T02:38:12;97484.16;;;13.42;57.24
8039;BME280;4062;49.844;8.120;2024-02-26T02:40:13;97489.47;;;13.42;57.24
8039;BME280;4062;49.844;8.120;2024-02-26T02:42:15;97478.84;;;13.42;57.25
8039;BME280;4062;49.844;8.120;2024-02-26T02:44:16;97479.69;;;13.43;57.21
8039;BME280;4062;49.844;8.120;2024-02-26T02:46:17;97476.19;;;13.42;57.24
8039;BME280;4062;49.844;8.120;2024-02-26T02:48:19;97478.84;;;13.42;57.24
8039;BME280;4062;49.844;8.120;2024-02-26T02:50:20;97470.03;;;13.42;57.19
8039;BME280;4062;49.844;8.120;2024-02-26T02:52:21;97466.41;;;13.43;57.25
8039;BME280;4062;49.844;8.120;2024-02-26T02:54:23;97464.72;;;13.42;57.16
8039;BME280;4062;49.844;8.120;2024-02-26T02:56:24;97467.38;;;13.42;57.21
8039;BME280;4062;49.844;8.120;2024-02-26T02:58:25;97455.91;;;13.41;57.19
8039;BME280;4062;49.844;8.120;2024-02-26T03:00:27;97462.06;;;13.42;57.26
8039;BME280;4062;49.844;8.120;2024-02-26T03:02:28;97459.41;;;13.42;57.23
8039;BME280;4062;49.844;8.120;2024-02-26T03:04:30;97456.75;;;13.42;57.31
8039;BME280;4062;49.844;8.120;2024-02-26T03:06:31;97459.41;;;13.42;57.13
8039;BME280;4062;49.844;8.120;2024-02-26T03:08:33;97464.72;;;13.42;57.23
8039;BME280;4062;49.844;8.120;2024-02-26T03:10:37;97464.72;;;13.42;57.19
8039;BME280;4062;49.844;8.120;2024-02-26T03:12:39;97464.72;;;13.42;57.20
8039;BME280;4062;49.844;8.120;2024-02-26T03:14:40;97463.88;;;13.41;57.25
8039;BME280;4062;49.844;8.120;2024-02-26T03:16:41;97471.84;;;13.41;57.18
8039;BME280;4062;49.844;8.120;2024-02-26T03:18:42;97467.38;;;13.42;57.16
8039;BME280;4062;49.844;8.120;2024-02-26T03:20:44;97464.81;;;13.40;57.21
8039;BME280;4062;49.844;8.120;2024-02-26T03:22:45;97463.88;;;13.41;57.30
8039;BME280;4062;49.844;8.120;2024-02-26T03:24:47;97471.84;;;13.41;57.24
8039;BME280;4062;49.844;8.120;2024-02-26T03:26:48;97467.38;;;13.42;57.13
8039;BME280;4062;49.844;8.120;2024-02-26T03:28:49;97464.72;;;13.42;57.27
8039;BME280;4062;49.844;8.120;2024-02-26T03:30:51;97463.88;;;13.41;57.25
8039;BME280;4062;49.844;8.120;2024-02-26T03:32:52;97465.66;;;13.41;57.24
8039;BME280;4062;49.844;8.120;2024-02-26T03:34:53;97462.19;;;13.40;56.91
8039;BME280;4062;49.844;8.120;2024-02-26T03:36:57;97463.00;;;13.41;57.22
8039;BME280;4062;49.844;8.120;2024-02-26T03:38:58;97457.69;;;13.41;57.26
8039;BME280;4062;49.844;8.120;2024-02-26T03:40:59;97461.34;;;13.40;57.15
8039;BME280;4062;49.844;8.120;2024-02-26T03:43:01;97459.53;;;13.40;57.24
8039;BME280;4062;49.844;8.120;2024-02-26T03:45:03;97456.88;;;13.40;57.21
8039;BME280;4062;49.844;8.120;2024-02-26T03:47:05;97452.41;;;13.41;57.19
8039;BME280;4062;49.844;8.120;2024-02-26T03:49:06;97448.06;;;13.40;57.26
8039;BME280;4062;49.844;8.120;2024-02-26T03:51:09;97452.41;;;13.41;57.28
8039;BME280;4062;49.844;8.120;2024-02-26T03:53:11;97456.03;;;13.40;57.19
8039;BME280;4062;49.844;8.120;2024-02-26T03:55:13;97449.75;;;13.41;57.24
8039;BME280;4062;49.844;8.120;2024-02-26T03:57:15;97450.72;;;13.40;57.15
8039;BME280;4062;49.844;8.120;2024-02-26T03:59:16;97449.88;;;13.39;57.23
8039;BME280;4062;49.844;8.120;2024-02-26T04:01:18;97448.91;;;13.40;57.28
8039;BME280;4062;49.844;8.120;2024-02-26T04:03:19;97451.56;;;13.40;57.31
8039;BME280;4062;49.844;8.120;2024-02-26T04:05:20;97440.13;;;13.40;57.16
8039;BME280;4062;49.844;8.120;2024-02-26T04:07:21;97440.13;;;13.40;57.21
8039;BME280;4062;49.844;8.120;2024-02-26T04:09:23;97442.78;;;13.40;57.13
8039;BME280;4062;49.844;8.120;2024-02-26T04:11:24;97448.06;;;13.40;57.25
8039;BME280;4062;49.844;8.120;2024-02-26T04:13:25;97443.72;;;13.39;57.03
8039;BME280;4062;49.844;8.120;2024-02-26T04:15:27;97440.13;;;13.40;57.21
8039;BME280;4062;49.844;8.120;2024-02-26T04:17:28;97441.91;;;13.39;57.22
8039;BME280;4062;49.844;8.120;2024-02-26T04:19:29;97447.22;;;13.39;57.07
8039;BME280;4062;49.844;8.120;2024-02-26T04:21:30;97449.03;;;13.39;57.30
8039;BME280;4062;49.844;8.120;2024-02-26T04:23:32;97442.78;;;13.40;57.20
8039;BME280;4062;49.844;8.120;2024-02-26T04:25:33;97445.44;;;13.40;57.41
8039;BME280;4062;49.844;8.120;2024-02-26T04:27:34;97449.03;;;13.39;57.10
8039;BME280;4062;49.844;8.120;2024-02-26T04:29:35;97453.38;;;13.40;57.17
8039;BME280;4062;49.844;8.120;2024-02-26T04:31:38;97452.50;;;13.39;57.13
8039;BME280;4062;49.844;8.120;2024-02-26T04:33:40;97452.50;;;13.39;57.20
8039;BME280;4062;49.844;8.120;2024-02-26T04:35:43;97454.34;;;13.39;57.20
8039;BME280;4062;49.844;8.120;2024-02-26T04:37:44;97453.38;;;13.40;57.10
8039;BME280;4062;49.844;8.120;2024-02-26T04:39:45;97448.13;;;13.38;57.14
8039;BME280;4062;49.844;8.120;2024-02-26T04:41:46;97454.34;;;13.39;57.21
8039;BME280;4062;49.844;8.120;2024-02-26T04:43:48;97454.22;;;13.40;57.29
8039;BME280;4062;49.844;8.120;2024-02-26T04:45:49;97458.69;;;13.40;57.19
8039;BME280;4062;49.844;8.120;2024-02-26T04:47:50;97456.97;;;13.39;57.21
8039;BME280;4062;49.844;8.120;2024-02-26T04:49:51;97455.16;;;13.39;57.15
8039;BME280;4062;49.844;8.120;2024-02-26T04:51:53;97453.38;;;13.40;57.17
8039;BME280;4062;49.844;8.120;2024-02-26T04:53:55;97457.81;;;13.39;57.22
8039;BME280;4062;49.844;8.120;2024-02-26T04:55:56;97455.16;;;13.39;57.17
8039;BME280;4062;49.844;8.120;2024-02-26T04:57:57;97451.69;;;13.39;57.05
8039;BME280;4062;49.844;8.120;2024-02-26T04:59:58;97461.38;;;13.38;57.20
8039;BME280;4062;49.844;8.120;2024-02-26T05:02:00;97458.75;;;13.38;57.33
8039;BME280;4062;49.844;8.120;2024-02-26T05:04:01;97462.28;;;13.39;57.15
8039;BME280;4062;49.844;8.120;2024-02-26T05:06:02;97464.03;;;13.38;57.20
8039;BME280;4062;49.844;8.120;2024-02-26T05:08:04;97459.63;;;13.39;57.21
8039;BME280;4062;49.844;8.120;2024-02-26T05:10:05;97465.78;;;13.39;57.13
8039;BME280;4062;49.844;8.120;2024-02-26T05:12:06;97463.19;;;13.38;57.31
8039;BME280;4062;49.844;8.120;2024-02-26T05:14:08;97465.78;;;13.39;57.21
8039;BME280;4062;49.844;8.120;2024-02-26T05:16:09;97463.19;;;13.38;57.20
8039;BME280;4062;49.844;8.120;2024-02-26T05:18:11;97469.34;;;13.38;57.20
8039;BME280;4062;49.844;8.120;2024-02-26T05:20:12;97464.03;;;13.38;57.28
8039;BME280;4062;49.844;8.120;2024-02-26T05:22:13;97457.91;;;13.38;57.23
8039;BME280;4062;49.844;8.120;2024-02-26T05:24:14;97459.63;;;13.39;57.26
8039;BME280;4062;49.844;8.120;2024-02-26T05:26:21;97450.78;;;13.38;57.29
8039;BME280;4062;49.844;8.120;2024-02-26T05:28:23;97449.94;;;13.38;57.24
8039;BME280;4062;49.844;8.120;2024-02-26T05:30:24;97449.06;;;13.37;57.17
8039;BME280;4062;49.844;8.120;2024-02-26T05:32:25;97451.72;;;13.37;57.28
8039;BME280;4062;49.844;8.120;2024-02-26T05:34:26;97462.34;;;13.37;57.13
8039;BME280;4062;49.844;8.120;2024-02-26T05:36:28;97450.78;;;13.38;57.35
8039;BME280;4062;49.844;8.120;2024-02-26T05:38:34;97457.91;;;13.38;57.27
8039;BME280;4062;49.844;8.120;2024-02-26T05:40:35;97452.59;;;13.38;57.18
8039;BME280;4062;49.844;8.120;2024-02-26T05:42:36;97459.63;;;13.39;57.19
8039;BME280;4062;49.844;8.120;2024-02-26T05:44:37;97458.69;;;13.40;57.10
8039;BME280;4062;49.844;8.120;2024-02-26T05:46:39;97461.34;;;13.40;57.03
8039;BME280;4062;49.844;8.120;2024-02-26T05:48:40;97463.75;;;13.43;57.09
8039;BME280;4062;49.844;8.120;2024-02-26T05:50:41;97461.03;;;13.44;57.01
8039;BME280;4062;49.844;8.120;2024-02-26T05:52:43;97469.00;;;13.44;57.16
8039;BME280;4062;49.844;8.120;2024-02-26T05:54:44;97460.06;;;13.45;57.20
8039;BME280;4062;49.844;8.120;2024-02-26T05:56:45;97463.47;;;13.48;57.35
8039;BME280;4062;49.844;8.120;2024-02-26T05:58:46;97468.69;;;13.49;57.28
8039;BME280;4062;49.844;8.120;2024-02-26T06:00:48;97461.44;;;13.51;57.45
8039;BME280;4062;49.844;8.120;2024-02-26T06:02:49;97467.50;;;13.53;57.47
8039;BME280;4062;49.844;8.120;2024-02-26T06:04:51;97472.69;;;13.55;57.43
8039;BME280;4062;49.844;8.120;2024-02-26T06:06:52;97474.41;;;13.56;57.49
8039;BME280;4062;49.844;8.120;2024-02-26T06:08:53;97476.97;;;13.57;57.38
8039;BME280;4062;49.844;8.120;2024-02-26T06:10:54;97476.84;;;13.59;57.60
8039;BME280;4062;49.844;8.120;2024-02-26T06:12:55;97481.22;;;13.60;57.35
8039;BME280;4062;49.844;8.120;2024-02-26T06:14:57;97492.59;;;13.62;57.50
8039;BME280;4062;49.844;8.120;2024-02-26T06:17:02;97492.59;;;13.62;57.45
8039;BME280;4062;49.844;8.120;2024-02-26T06:19:03;97496.94;;;13.63;57.48
8039;BME280;4062;49.844;8.120;2024-02-26T06:21:04;97499.47;;;13.65;57.50
8039;BME280;4062;49.844;8.120;2024-02-26T06:23:09;97495.13;;;13.64;57.45
8039;BME280;4062;49.844;8.120;2024-02-26T06:25:11;97504.78;;;13.65;57.36
8039;BME280;4062;49.844;8.120;2024-02-26T06:27:12;97509.16;;;13.66;57.49
8039;BME280;4062;49.844;8.120;2024-02-26T06:29:14;97515.28;;;13.66;57.46
8039;BME280;4062;49.844;8.120;2024-02-26T06:31:15;97510.84;;;13.67;57.45
8039;BME280;4062;49.844;8.120;2024-02-26T06:33:16;97515.28;;;13.66;57.38
8039;BME280;4062;49.844;8.120;2024-02-26T06:35:17;97518.81;;;13.67;57.39
8039;BME280;4062;49.844;8.120;2024-02-26T06:37:19;97520.53;;;13.68;57.33
8039;BME280;4062;49.844;8.120;2024-02-26T06:39:20;97529.31;;;13.68;57.21
8039;BME280;4062;49.844;8.120;2024-02-26T06:41:21;97531.97;;;13.68;57.45
8039;BME280;4062;49.844;8.120;2024-02-26T06:43:28;97525.81;;;13.68;57.18
8039;BME280;4062;49.844;8.120;2024-02-26T06:45:29;97532.91;;;13.67;57.28
8039;BME280;4062;49.844;8.120;2024-02-26T06:47:30;97543.41;;;13.69;57.28
8039;BME280;4062;49.844;8.120;2024-02-26T06:49:31;97539.09;;;13.68;57.26
8039;BME280;4062;49.844;8.120;2024-02-26T06:51:33;97540.75;;;13.69;57.23
8039;BME280;4062;49.844;8.120;2024-02-26T06:53:34;97546.06;;;13.69;57.21
8039;BME280;4062;49.844;8.120;2024-02-26T06:55:35;97545.22;;;13.68;57.21
8039;BME280;4062;49.844;8.120;2024-02-26T06:57:38;97545.22;;;13.68;57.21
8039;BME280;4062;49.844;8.120;2024-02-26T06:59:39;97554.03;;;13.69;57.13
8039;BME280;4062;49.844;8.120;2024-02-26T07:01:42;97560.22;;;13.69;57.18
8039;BME280;4062;49.844;8.120;2024-02-26T07:03:43;97565.53;;;13.69;57.26
8039;BME280;4062;49.844;8.120;2024-02-26T07:05:44;97565.53;;;13.69;57.19
8039;BME280;4062;49.844;8.120;2024-02-26T07:07:47;97575.25;;;13.69;57.07
8039;BME280;4062;49.844;8.120;2024-02-26T07:09:48;97572.59;;;13.69;57.12
8039;BME280;4062;49.844;8.120;2024-02-26T07:11:49;97574.31;;;13.70;57.16
8039;BME280;4062;49.844;8.120;2024-02-26T07:13:50;97570.81;;;13.69;57.21
8039;BME280;4062;49.844;8.120;2024-02-26T07:15:51;97572.59;;;13.69;57.08
8039;BME280;4062;49.844;8.120;2024-02-26T07:17:53;97577.09;;;13.68;57.18
8039;BME280;4062;49.844;8.120;2024-02-26T07:19:54;97578.78;;;13.69;57.10
8039;BME280;4062;49.844;8.120;2024-02-26T07:21:55;97583.22;;;13.69;57.04
8039;BME280;4062;49.844;8.120;2024-02-26T07:23:56;97584.09;;;13.69;57.13
8039;BME280;4062;49.844;8.120;2024-02-26T07:25:57;97585.88;;;13.69;57.07
8039;BME280;4062;49.844;8.120;2024-02-26T07:27:59;97584.09;;;13.69;57.03
8039;BME280;4062;49.844;8.120;2024-02-26T07:30:00;97589.41;;;13.69;57.14
8039;BME280;4062;49.844;8.120;2024-02-26T07:32:02;97578.78;;;13.69;57.04
8039;BME280;4062;49.844;8.120;2024-02-26T07:34:03;97584.09;;;13.69;57.04
8039;BME280;4062;49.844;8.120;2024-02-26T07:36:05;97583.22;;;13.69;56.99
8039;BME280;4062;49.844;8.120;2024-02-26T07:38:06;97584.22;;;13.68;56.92
8039;BME280;4062;49.844;8.120;2024-02-26T07:40:08;97585.88;;;13.69;56.93
8039;BME280;4062;49.844;8.120;2024-02-26T07:42:09;97583.22;;;13.69;57.03
8039;BME280;4062;49.844;8.120;2024-02-26T07:44:10;97584.22;;;13.68;56.98
8039;BME280;4062;49.844;8.120;2024-02-26T07:46:12;97587.69;;;13.68;56.98
8039;BME280;4062;49.844;8.120;2024-02-26T07:48:13;97594.81;;;13.68;56.86
8039;BME280;4062;49.844;8.120;2024-02-26T07:50:15;97591.31;;;13.67;56.80
8039;BME280;4062;49.844;8.120;2024-02-26T07:52:16;97603.63;;;13.68;57.07
8039;BME280;4062;49.844;8.120;2024-02-26T07:54:17;97601.91;;;13.67;57.04
8039;BME280;4062;49.844;8.120;2024-02-26T07:56:20;97601.91;;;13.67;56.96
8039;BME280;4062;49.844;8.120;2024-02-26T07:58:23;97604.56;;;13.67;57.04
8039;BME280;4062;49.844;8.120;2024-02-26T08:00:24;97609.03;;;13.67;56.99
8039;BME280;4062;49.844;8.120;2024-02-26T08:02:26;97605.44;;;13.68;57.07
8039;BME280;4062;49.844;8.120;2024-02-26T08:04:27;97605.50;;;13.66;56.85
8039;BME280;4062;49.844;8.120;2024-02-26T08:06:28;97608.16;;;13.66;56.89
8039;BME280;4062;49.844;8.120;2024-02-26T08:08:29;97610.00;;;13.66;56.93
8039;BME280;4062;49.844;8.120;2024-02-26T08:10:30;97604.69;;;13.66;57.03
8039;BME280;4062;49.844;8.120;2024-02-26T08:12:31;97610.81;;;13.66;56.91
8039;BME280;4062;49.844;8.120;2024-02-26T08:14:33;97613.47;;;13.66;57.03
8039;BME280;4062;49.844;8.120;2024-02-26T08:16:34;97612.63;;;13.66;57.14
8039;BME280;4062;49.844;8.120;2024-02-26T08:18:35;97619.72;;;13.65;57.01
8039;BME280;4062;49.844;8.120;2024-02-26T08:20:36;97619.72;;;13.65;57.03
8039;BME280;4062;49.844;8.120;2024-02-26T08:22:38;97625.03;;;13.65;56.97
8039;BME280;4062;49.844;8.120;2024-02-26T08:24:40;97632.16;;;13.65;56.96
8039;BME280;4062;49.844;8.120;2024-02-26T08:26:41;97633.88;;;13.66;56.97
8039;BME280;4062;49.844;8.120;2024-02-26T08:28:42;97631.22;;;13.66;57.09
8039;BME280;4062;49.844;8.120;2024-02-26T08:30:44;97627.69;;;13.65;57.01
8039;BME280;4062;49.844;8.120;2024-02-26T08:32:47;97623.34;;;13.64;56.93
8039;BME280;4062;49.844;8.120;2024-02-26T08:34:48;97631.28;;;13.64;57.22
8039;BME280;4062;49.844;8.120;2024-02-26T08:36:49;97631.28;;;13.64;57.03
8039;BME280;4062;49.844;8.120;2024-02-26T08:38:51;97637.47;;;13.65;57.08
8039;BME280;4062;49.844;8.120;2024-02-26T08:40:52;97639.38;;;13.63;57.08
8039;BME280;4062;49.844;8.120;2024-02-26T08:42:54;97633.13;;;13.64;56.98
8039;BME280;4062;49.844;8.120;2024-02-26T08:44:56;97637.59;;;13.63;57.01
8039;BME280;4062;49.844;8.120;2024-02-26T08:46:57;97636.72;;;13.63;57.01
8039;BME280;4062;49.844;8.120;2024-02-26T08:48:59;97633.13;;;13.64;56.88
8039;BME280;4062;49.844;8.120;2024-02-26T08:51:08;97638.53;;;13.62;57.09
8039;BME280;4062;49.844;8.120;2024-02-26T08:53:09;97635.88;;;13.62;57.07
8039;BME280;4062;49.844;8.120;2024-02-26T08:55:11;97635.88;;;13.62;56.89
8039;BME280;4062;49.844;8.120;2024-02-26T08:57:12;97632.28;;;13.63;57.07
8039;BME280;4062;49.844;8.120;2024-02-26T08:59:14;97637.66;;;13.62;57.00
8039;BME280;4062;49.844;8.120;2024-02-26T09:01:17;97629.69;;;13.62;56.91
8039;BME280;4062;49.844;8.120;2024-02-26T09:03:18;97638.53;;;13.62;56.96
8039;BME280;4062;49.844;8.120;2024-02-26T09:05:20;97623.56;;;13.61;56.95
8039;BME280;4062;49.844;8.120;2024-02-26T09:07:21;97635.00;;;13.62;56.95
8039;BME280;4062;49.844;8.120;2024-02-26T09:09:23;97639.47;;;13.61;57.02
8039;BME280;4062;49.844;8.120;2024-02-26T09:11:27;97639.47;;;13.61;57.03
8039;BME280;4062;49.844;8.120;2024-02-26T09:13:28;97644.78;;;13.61;57.03
8039;BME280;4062;49.844;8.120;2024-02-26T09:15:29;97645.72;;;13.60;57.00
8039;BME280;4062;49.844;8.120;2024-02-26T09:17:31;97647.44;;;13.61;56.98
8039;BME280;4062;49.844;8.120;2024-02-26T09:19:32;97641.25;;;13.60;57.03
8039;BME280;4062;49.844;8.120;2024-02-26T09:21:33;97636.91;;;13.59;56.96
8039;BME280;4062;49.844;8.120;2024-02-26T09:23:34;97649.22;;;13.60;57.03
8039;BME280;4062;49.844;8.120;2024-02-26T09:25:36;97643.91;;;13.60;57.05
8039;BME280;4062;49.844;8.120;2024-02-26T09:27:37;97645.72;;;13.60;57.11
8039;BME280;4062;49.844;8.120;2024-02-26T09:29:38;97641.38;;;13.59;57.08
8039;BME280;4062;49.844;8.120;2024-02-26T09:31:39;97644.84;;;13.59;57.01
8039;BME280;4062;49.844;8.120;2024-02-26T09:33:42;97644.03;;;13.59;57.04
8039;BME280;4062;49.844;8.120;2024-02-26T09:35:43;97653.81;;;13.58;57.01
8039;BME280;4062;49.844;8.120;2024-02-26T09:37:44;97652.81;;;13.59;56.96
8039;BME280;4062;49.844;8.120;2024-02-26T09:39:45;97658.13;;;13.59;57.01
8039;BME280;4062;49.844;8.120;2024-02-26T09:41:47;97649.34;;;13.59;56.99
8039;BME280;4062;49.844;8.120;2024-02-26T09:43:51;97658.13;;;13.59;57.00
8039;BME280;4062;49.844;8.120;2024-02-26T09:45:57;97652.81;;;13.59;57.06
8039;BME280;4062;49.844;8.120;2024-02-26T09:47:58;97654.63;;;13.59;57.05
8039;BME280;4062;49.844;8.120;2024-02-26T09:50:00;97657.28;;;13.59;56.99
8039;BME280;4062;49.844;8.120;2024-02-26T09:52:05;97659.84;;;13.60;56.93
8039;BME280;4062;49.844;8.120;2024-02-26T09:54:11;97660.78;;;13.59;56.96
8039;BME280;4062;49.844;8.120;2024-02-26T09:56:14;97672.28;;;13.60;57.03
8039;BME280;4062;49.844;8.120;2024-02-26T09:58:16;97674.06;;;13.59;56.94
8039;BME280;4062;49.844;8.120;2024-02-26T10:00:20;97683.72;;;13.60;56.87
8039;BME280;4062;49.844;8.120;2024-02-26T10:02:25;97681.06;;;13.60;57.01
8039;BME280;4062;49.844;8.120;2024-02-26T10:04:27;97690.84;;;13.60;56.96
8039;BME280;4062;49.844;8.120;2024-02-26T10:06:28;97680.22;;;13.60;56.92
8039;BME280;4062;49.844;8.120;2024-02-26T10:08:30;97686.38;;;13.60;57.00
8039;BME280;4062;49.844;8.120;2024-02-26T10:10:33;97685.53;;;13.60;57.00
8039;BME280;4062;49.844;8.120;2024-02-26T10:12:34;97695.19;;;13.61;57.11
8039;BME280;4062;49.844;8.120;2024-02-26T10:14:35;97690.72;;;13.62;57.12
8039;BME280;4062;49.844;8.120;2024-02-26T10:16:37;97697.84;;;13.61;57.03
8039;BME280;4062;49.844;8.120;2024-02-26T10:18:52;97697.84;;;13.61;57.07
8039;BME280;4062;49.844;8.120;2024-02-26T10:21:00;97691.69;;;13.60;57.04
8039;BME280;4062;49.844;8.120;2024-02-26T10:23:05;97700.50;;;13.61;57.02
8039;BME280;4062;49.844;8.120;2024-02-26T10:25:07;97703.16;;;13.61;57.02
8039;BME280;4062;49.844;8.120;2024-02-26T10:27:09;97700.50;;;13.61;57.06
8039;BME280;4062;49.844;8.120;2024-02-26T10:29:11;97700.50;;;13.61;57.02
8039;BME280;4062;49.844;8.120;2024-02-26T10:31:14;97704.94;;;13.60;57.03
8039;BME280;4062;49.844;8.120;2024-02-26T10:33:16;97702.28;;;13.60;57.04
8039;BME280;4062;49.844;8.120;2024-02-26T10:35:17;97710.25;;;13.60;56.97
8039;BME280;4062;49.844;8.120;2024-02-26T10:37:19;97709.41;;;13.60;57.03
8039;BME280;4062;49.844;8.120;2024-02-26T10:39:20;97719.09;;;13.61;56.99
8039;BME280;4062;49.844;8.120;2024-02-26T10:41:23;97712.91;;;13.60;57.05
8039;BME280;4062;49.844;8.120;2024-02-26T10:43:26;97719.91;;;13.62;57.00
8039;BME280;4062;49.844;8.120;2024-02-26T10:45:27;97719.16;;;13.59;57.06
8039;BME280;4062;49.844;8.120;2024-02-26T10:47:29;97714.72;;;13.60;57.15
8039;BME280;4062;49.844;8.120;2024-02-26T10:49:30;97714.72;;;13.60;57.05
8039;BME280;4062;49.844;8.120;2024-02-26T10:51:32;97724.47;;;13.59;57.04
8039;BME280;4062;49.844;8.120;2024-02-26T10:53:36;97722.69;;;13.60;57.01
8039;BME280;4062;49.844;8.120;2024-02-26T10:55:38;97727.13;;;13.59;56.99
8039;BME280;4062;49.844;8.120;2024-02-26T10:57:41;97728.00;;;13.60;57.04
8039;BME280;4062;49.844;8.120;2024-02-26T10:59:44;97729.78;;;13.59;57.13
8039;BME280;4062;49.844;8.120;2024-02-26T11:01:47;97715.66;;;13.59;57.11
8039;BME280;4062;49.844;8.120;2024-02-26T11:03:51;97727.13;;;13.59;57.15